Time;durP1;ratioP1;P1;durP2;ratioP2;P2;SDS_P1;SDS_P2;PMS_P1;PMS_P2;Temp;Humidity;BMP_temperature;BMP_pressure;BME280_temperature;BME280_humidity;BME280_pressure;Samples;Min_cycle;Max_cycle;Signal;HPM_P1;HPM_P2
2021/10/06 00:01:15;;;;;;;9.82;3.67;;;18.70;99.90;;;;;;4938668;29;20059;-79
2021/10/06 00:03:41;;;;;;;16.63;4.22;;;18.70;99.90;;;;;;4938739;29;20031;-80
2021/10/06 00:06:06;;;;;;;19.42;4.90;;;18.70;99.90;;;;;;4938692;29;20111;-81
2021/10/06 00:08:32;;;;;;;16.17;3.65;;;18.70;99.90;;;;;;4938407;29;20490;-80
2021/10/06 00:10:58;;;;;;;19.70;3.97;;;18.70;99.90;;;;;;4921204;29;20087;-80
2021/10/06 00:13:23;;;;;;;18.45;4.13;;;18.80;99.90;;;;;;4938470;29;20054;-79
2021/10/06 00:15:49;;;;;;;23.60;3.55;;;18.70;99.90;;;;;;4938647;29;20032;-80
2021/10/06 00:18:15;;;;;;;18.17;4.35;;;18.70;99.90;;;;;;4938362;29;20147;-80
2021/10/06 00:20:41;;;;;;;20.48;4.25;;;18.80;99.90;;;;;;4938089;29;20111;-80
2021/10/06 00:23:07;;;;;;;16.63;3.40;;;18.80;99.90;;;;;;4938236;29;20129;-81
2021/10/06 00:25:33;;;;;;;15.35;4.15;;;18.80;99.90;;;;;;4938158;29;20046;-79
2021/10/06 00:27:59;;;;;;;14.32;4.72;;;18.80;99.90;;;;;;4937563;29;20099;-80
2021/10/06 00:30:24;;;;;;;17.60;5.10;;;18.80;99.90;;;;;;4937608;29;20043;-80
2021/10/06 00:32:50;;;;;;;20.08;4.20;;;18.70;99.90;;;;;;4937794;29;20047;-81
2021/10/06 00:35:16;;;;;;;17.77;4.15;;;18.70;99.90;;;;;;4938149;29;20114;-81
2021/10/06 00:37:42;;;;;;;13.88;3.70;;;18.70;99.90;;;;;;4937951;29;20032;-80
2021/10/06 00:40:08;;;;;;;14.27;3.83;;;18.70;99.90;;;;;;4938229;29;20390;-79
2021/10/06 00:42:36;;;;;;;15.65;3.42;;;18.70;99.90;;;;;;4937830;29;20479;-79
2021/10/06 00:45:03;;;;;;;17.88;4.22;;;18.70;99.90;;;;;;4920842;29;20043;-79
2021/10/06 00:47:28;;;;;;;9.63;3.50;;;18.70;99.90;;;;;;4937586;29;20052;-81
2021/10/06 00:49:54;;;;;;;16.13;3.88;;;18.80;99.90;;;;;;4937776;29;20062;-80
2021/10/06 00:52:20;;;;;;;9.07;3.17;;;18.80;99.90;;;;;;4937549;29;20095;-80
2021/10/06 00:54:46;;;;;;;18.63;3.53;;;18.80;99.90;;;;;;4937775;29;20035;-81
2021/10/06 00:57:12;;;;;;;14.60;3.67;;;18.80;99.90;;;;;;4920126;29;20039;-79
2021/10/06 00:59:38;;;;;;;15.10;3.60;;;18.80;99.90;;;;;;4937733;29;20498;-79
2021/10/06 01:02:04;;;;;;;13.18;3.63;;;18.70;99.90;;;;;;4937647;29;20095;-79
2021/10/06 01:04:32;;;;;;;9.40;3.53;;;18.70;99.90;;;;;;4937645;29;20036;-80
2021/10/06 01:06:58;;;;;;;21.95;4.13;;;18.70;99.90;;;;;;4937141;29;20036;-79
2021/10/06 01:09:28;;;;;;;11.88;3.38;;;18.80;99.90;;;;;;4936908;29;20102;-78
2021/10/06 01:11:54;;;;;;;13.60;3.60;;;18.80;99.90;;;;;;4937521;29;20086;-79
2021/10/06 01:14:22;;;;;;;20.02;4.05;;;18.80;99.90;;;;;;4937508;29;20489;-80
2021/10/06 01:16:49;;;;;;;18.83;3.20;;;18.80;99.90;;;;;;4937136;29;20043;-79
2021/10/06 01:19:20;;;;;;;14.57;3.30;;;18.80;99.90;;;;;;4936992;29;20043;-79
2021/10/06 01:21:47;;;;;;;18.85;3.08;;;18.70;99.90;;;;;;4936994;29;20031;-80
2021/10/06 01:24:12;;;;;;;20.05;3.10;;;18.70;99.90;;;;;;4937158;29;20094;-81
2021/10/06 01:26:38;;;;;;;14.05;2.78;;;18.70;99.90;;;;;;4936893;29;20474;-81
2021/10/06 01:29:04;;;;;;;13.73;3.55;;;18.70;99.90;;;;;;4937143;29;20122;-80
2021/10/06 01:31:30;;;;;;;13.35;3.53;;;18.70;99.90;;;;;;4937124;29;20067;-80
2021/10/06 01:33:56;;;;;;;13.10;3.17;;;18.70;99.90;;;;;;4936730;29;20056;-79
2021/10/06 01:36:22;;;;;;;22.70;3.13;;;18.60;99.90;;;;;;4936788;29;20497;-79
2021/10/06 01:38:47;;;;;;;15.20;3.33;;;18.50;99.90;;;;;;4919345;29;20044;-80
2021/10/06 01:41:13;;;;;;;18.58;3.88;;;18.50;99.90;;;;;;4935665;29;20036;-80
2021/10/06 01:43:39;;;;;;;17.27;3.50;;;18.60;99.90;;;;;;4936005;29;20043;-80
2021/10/06 01:46:04;;;;;;;12.70;2.58;;;18.60;99.90;;;;;;4935823;29;20110;-80
2021/10/06 01:48:30;;;;;;;11.30;2.50;;;18.60;99.90;;;;;;4935635;29;20050;-81
2021/10/06 01:50:56;;;;;;;15.30;3.65;;;18.60;99.90;;;;;;4935711;29;20036;-83
2021/10/06 01:53:22;;;;;;;21.50;3.63;;;18.60;99.90;;;;;;4935804;29;20039;-82
2021/10/06 01:55:47;;;;;;;22.20;3.00;;;18.60;99.90;;;;;;4918897;29;20048;-81
2021/10/06 01:58:18;;;;;;;11.32;3.15;;;18.60;99.90;;;;;;4935595;29;20031;-78
2021/10/06 02:00:47;;;;;;;11.18;2.83;;;18.50;99.90;;;;;;4935674;29;20028;-81
2021/10/06 02:03:13;;;;;;;15.70;2.72;;;18.50;99.90;;;;;;4935522;29;20063;-80
2021/10/06 02:05:39;;;;;;;14.80;2.70;;;18.60;99.90;;;;;;4918599;29;20101;-78
2021/10/06 02:08:06;;;;;;;11.93;2.92;;;18.60;99.90;;;;;;4935507;29;20047;-79
2021/10/06 02:10:33;;;;;;;7.93;2.10;;;18.60;99.90;;;;;;4935686;29;20042;-78
2021/10/06 02:12:59;;;;;;;14.48;2.50;;;18.50;99.90;;;;;;4935616;29;20402;-78
2021/10/06 02:15:25;;;;;;;9.95;2.97;;;18.50;99.90;;;;;;4935625;29;20038;-77
2021/10/06 02:17:51;;;;;;;17.17;2.53;;;18.50;99.90;;;;;;4935592;29;20390;-79
2021/10/06 02:20:17;;;;;;;15.48;3.10;;;18.50;99.90;;;;;;4935317;29;20086;-79
2021/10/06 02:22:43;;;;;;;10.60;2.40;;;18.50;99.90;;;;;;4935492;29;20486;-79
2021/10/06 02:25:10;;;;;;;14.02;2.83;;;18.50;99.90;;;;;;4935442;29;20063;-79
2021/10/06 02:27:36;;;;;;;15.68;2.72;;;18.50;99.90;;;;;;4935328;29;20043;-81
2021/10/06 02:30:03;;;;;;;9.25;2.85;;;18.50;99.90;;;;;;4935312;29;20042;-80
2021/10/06 02:32:29;;;;;;;8.00;2.33;;;18.50;99.90;;;;;;4934814;29;20051;-79
2021/10/06 02:34:54;;;;;;;11.45;3.05;;;18.40;99.90;;;;;;4935152;29;20442;-81
2021/10/06 02:37:20;;;;;;;19.50;2.70;;;18.40;99.90;;;;;;4935059;29;20434;-80
2021/10/06 02:39:46;;;;;;;13.85;2.17;;;18.40;99.90;;;;;;4935212;29;20034;-80
2021/10/06 02:42:11;;;;;;;15.35;2.20;;;18.40;99.90;;;;;;4917937;29;20031;-79
2021/10/06 02:44:37;;;;;;;16.40;3.05;;;18.40;99.90;;;;;;4934810;29;20083;-80
2021/10/06 02:47:03;;;;;;;11.27;3.00;;;18.40;99.90;;;;;;4918008;29;20511;-79
2021/10/06 02:49:30;;;;;;;10.23;2.40;;;18.40;99.90;;;;;;4934962;29;20492;-78
2021/10/06 02:51:56;;;;;;;15.13;2.85;;;18.40;99.90;;;;;;4935650;29;20521;-79
2021/10/06 02:54:21;;;;;;;10.23;2.50;;;18.40;99.90;;;;;;4921772;29;20075;-79
2021/10/06 02:56:47;;;;;;;21.02;2.45;;;18.40;99.90;;;;;;4938983;29;20414;-79
2021/10/06 02:59:13;;;;;;;11.88;2.10;;;18.40;99.90;;;;;;4938890;29;20037;-81
2021/10/06 03:01:38;;;;;;;16.92;2.15;;;18.40;99.90;;;;;;4938784;29;20040;-80
2021/10/06 03:04:04;;;;;;;23.23;2.88;;;18.40;99.90;;;;;;4938872;29;20036;-80
2021/10/06 03:06:30;;;;;;;14.05;2.58;;;18.40;99.90;;;;;;4938527;29;20044;-79
2021/10/06 03:08:55;;;;;;;21.25;3.55;;;18.40;99.90;;;;;;4938648;29;20103;-78
2021/10/06 03:11:22;;;;;;;12.90;2.20;;;18.40;99.90;;;;;;4938657;29;20042;-80
2021/10/06 03:13:48;;;;;;;11.82;2.67;;;18.40;99.90;;;;;;4938527;29;20046;-79
2021/10/06 03:16:13;;;;;;;11.48;2.50;;;18.40;99.90;;;;;;4938551;29;20108;-80
2021/10/06 03:18:39;;;;;;;16.60;2.60;;;18.40;99.90;;;;;;4921260;29;20070;-79
2021/10/06 03:21:05;;;;;;;6.85;1.80;;;18.40;99.90;;;;;;4938537;29;20036;-78
2021/10/06 03:23:31;;;;;;;13.02;2.80;;;18.40;99.90;;;;;;4938468;29;20032;-79
2021/10/06 03:25:56;;;;;;;8.57;2.15;;;18.50;99.90;;;;;;4938467;29;20129;-79
2021/10/06 03:28:22;;;;;;;10.35;2.22;;;18.50;99.90;;;;;;4938186;29;20542;-78
2021/10/06 03:30:48;;;;;;;7.80;1.90;;;18.50;99.90;;;;;;4938997;29;20042;-79
2021/10/06 03:33:14;;;;;;;7.53;1.77;;;18.50;99.90;;;;;;4938857;29;20044;-80
2021/10/06 03:35:39;;;;;;;14.07;2.03;;;18.50;99.90;;;;;;4921748;29;20036;-79
2021/10/06 03:38:05;;;;;;;7.18;1.88;;;18.60;99.90;;;;;;4922216;29;20132;-79
2021/10/06 03:40:31;;;;;;;13.45;2.63;;;18.60;99.90;;;;;;4939044;29;20036;-79
2021/10/06 03:42:56;;;;;;;12.27;2.55;;;18.60;99.90;;;;;;4938926;29;20046;-78
2021/10/06 03:45:22;;;;;;;13.63;1.75;;;18.60;99.90;;;;;;4938667;29;20403;-80
2021/10/06 03:47:48;;;;;;;10.68;1.90;;;18.50;99.90;;;;;;4939062;29;20035;-79
2021/10/06 03:50:15;;;;;;;13.43;1.83;;;18.50;99.90;;;;;;4938714;29;20078;-79
2021/10/06 03:52:41;;;;;;;14.98;2.25;;;18.50;99.90;;;;;;4939023;29;20043;-79
2021/10/06 03:55:09;;;;;;;11.98;1.67;;;18.60;99.90;;;;;;4938437;29;20501;-79
2021/10/06 03:57:35;;;;;;;15.85;2.95;;;18.60;99.90;;;;;;4938815;29;20043;-80
2021/10/06 04:00:01;;;;;;;8.13;2.17;;;18.60;99.90;;;;;;4938773;29;20035;-80
2021/10/06 04:02:26;;;;;;;13.20;2.13;;;18.60;99.90;;;;;;4938277;29;20477;-79
2021/10/06 04:04:52;;;;;;;14.52;2.22;;;18.60;99.90;;;;;;4938223;29;20032;-79
2021/10/06 04:07:18;;;;;;;18.55;2.13;;;18.70;99.90;;;;;;4938290;29;20043;-79
2021/10/06 04:09:43;;;;;;;16.80;2.85;;;18.70;99.90;;;;;;4938529;29;20047;-79
2021/10/06 04:12:09;;;;;;;17.48;2.22;;;18.60;99.90;;;;;;4938735;29;20102;-79
2021/10/06 04:14:35;;;;;;;14.77;2.40;;;18.60;99.90;;;;;;4938410;29;20043;-79
2021/10/06 04:17:01;;;;;;;9.45;1.77;;;18.60;99.90;;;;;;4938576;29;20103;-81
2021/10/06 04:19:26;;;;;;;15.40;2.22;;;18.60;99.90;;;;;;4938238;29;20474;-79
2021/10/06 04:21:52;;;;;;;9.85;2.45;;;18.50;99.90;;;;;;4938392;29;20080;-79
2021/10/06 04:24:17;;;;;;;11.38;2.30;;;18.50;99.90;;;;;;4938444;29;20038;-80
2021/10/06 04:26:43;;;;;;;15.90;2.25;;;18.50;99.90;;;;;;4920762;29;20036;-79
2021/10/06 04:29:09;;;;;;;11.65;2.15;;;18.50;99.90;;;;;;4937877;29;20111;-82
2021/10/06 04:31:34;;;;;;;12.80;2.53;;;18.50;99.90;;;;;;4938021;29;20122;-79
2021/10/06 04:34:00;;;;;;;12.32;2.55;;;18.50;99.90;;;;;;4920347;29;20055;-79
2021/10/06 04:36:26;;;;;;;11.13;2.75;;;18.40;99.90;;;;;;4921033;29;20038;-81
2021/10/06 04:38:51;;;;;;;19.85;2.70;;;18.50;99.90;;;;;;4938053;29;20439;-80
2021/10/06 04:41:17;;;;;;;9.32;2.33;;;18.50;99.90;;;;;;4937852;29;20212;-80
2021/10/06 04:43:43;;;;;;;10.82;2.30;;;18.50;99.90;;;;;;4937488;29;20038;-78
2021/10/06 04:46:08;;;;;;;16.52;2.83;;;18.50;99.90;;;;;;4937708;29;20467;-80
2021/10/06 04:51:56;;;;;;;13.23;1.90;;;18.50;99.90;;;;;;4954043;29;20077;-75
2021/10/06 04:54:22;;;;;;;13.20;2.47;;;18.50;99.90;;;;;;4956081;29;20071;-75
2021/10/06 04:56:47;;;;;;;15.73;2.60;;;18.50;99.90;;;;;;4955607;29;20031;-76
2021/10/06 04:59:13;;;;;;;26.30;2.63;;;18.50;99.90;;;;;;4954210;28;20439;-76
2021/10/06 05:01:38;;;;;;;13.10;2.47;;;18.50;99.90;;;;;;4956208;29;20035;-74
2021/10/06 05:04:06;;;;;;;26.52;2.28;;;18.50;99.90;;;;;;4956016;29;20032;-75
2021/10/06 05:06:31;;;;;;;40.53;3.30;;;18.50;99.90;;;;;;4956138;29;20122;-77
2021/10/06 05:08:57;;;;;;;11.88;2.75;;;18.40;99.90;;;;;;4955650;28;20134;-76
2021/10/06 05:11:24;;;;;;;24.90;3.83;;;18.40;99.90;;;;;;4959667;29;20058;-71
2021/10/06 05:13:50;;;;;;;15.48;3.53;;;18.40;99.90;;;;;;4940228;29;20388;-76
2021/10/06 05:16:16;;;;;;;11.13;2.38;;;18.40;99.90;;;;;;4956313;28;20035;-76
2021/10/06 05:18:43;;;;;;;11.77;2.30;;;18.50;99.90;;;;;;4956374;28;20439;-75
2021/10/06 05:21:09;;;;;;;15.38;2.28;;;18.40;99.90;;;;;;4957169;29;20054;-76
2021/10/06 05:23:35;;;;;;;19.85;2.67;;;18.40;99.90;;;;;;4938613;29;20027;-75
2021/10/06 05:26:01;;;;;;;14.23;2.58;;;18.40;99.90;;;;;;4956776;29;20046;-72
2021/10/06 05:28:27;;;;;;;24.45;2.80;;;18.30;99.90;;;;;;4954344;28;20027;-74
2021/10/06 05:30:55;;;;;;;17.33;3.10;;;18.30;99.90;;;;;;4955826;29;20515;-70
2021/10/06 05:33:21;;;;;;;17.02;2.88;;;18.30;99.90;;;;;;4955362;29;20036;-74
2021/10/06 05:35:47;;;;;;;12.57;2.75;;;18.30;99.90;;;;;;4956288;29;20507;-72
2021/10/06 05:38:13;;;;;;;13.55;3.08;;;18.40;99.90;;;;;;4947508;28;20048;-74
2021/10/06 05:40:39;;;;;;;17.08;2.80;;;18.30;99.90;;;;;;4923509;29;20050;-86
2021/10/06 05:43:12;;;;;;;21.52;3.22;;;18.40;99.90;;;;;;4954786;29;20039;-84
2021/10/06 05:45:38;;;;;;;16.85;2.53;;;18.40;99.90;;;;;;4954723;29;20070;-84
2021/10/06 05:48:05;;;;;;;16.33;3.80;;;18.40;99.90;;;;;;4954630;29;20071;-84
2021/10/06 05:50:31;;;;;;;20.00;4.00;;;18.40;99.90;;;;;;4953875;28;20535;-82
2021/10/06 05:53:01;;;;;;;11.77;3.42;;;18.40;99.90;;;;;;4954734;29;20118;-84
2021/10/06 05:55:27;;;;;;;19.95;3.58;;;18.40;99.90;;;;;;4954142;29;20063;-82
2021/10/06 05:57:53;;;;;;;15.50;3.03;;;18.40;99.90;;;;;;4954156;29;20047;-83
2021/10/06 06:00:19;;;;;;;11.50;2.97;;;18.40;99.90;;;;;;4953722;28;20023;-85
2021/10/06 06:02:46;;;;;;;15.30;3.17;;;18.40;99.90;;;;;;4953340;29;20098;-83
2021/10/06 06:05:16;;;;;;;25.60;3.10;;;18.30;99.90;;;;;;4951867;29;20051;-84
2021/10/06 06:07:42;;;;;;;13.95;2.55;;;18.20;99.90;;;;;;4954490;29;20043;-84
2021/10/06 06:10:09;;;;;;;7.57;2.30;;;18.10;99.90;;;;;;4954052;28;20067;-85
2021/10/06 06:12:34;;;;;;;14.93;2.40;;;18.00;99.90;;;;;;4937105;29;20035;-87
2021/10/06 06:15:00;;;;;;;25.90;3.20;;;18.00;99.90;;;;;;4954011;29;20031;-81
2021/10/06 06:17:26;;;;;;;16.35;3.03;;;18.00;99.90;;;;;;4940538;29;20036;-84
2021/10/06 06:19:52;;;;;;;18.15;3.30;;;17.90;99.90;;;;;;4935118;29;20043;-82
2021/10/06 06:22:17;;;;;;;11.13;2.95;;;17.90;99.90;;;;;;4942110;29;20065;-83
2021/10/06 06:24:43;;;;;;;19.73;3.83;;;17.90;99.90;;;;;;4954096;29;20176;-84
2021/10/06 06:27:09;;;;;;;13.50;5.05;;;18.00;99.90;;;;;;4953820;28;20361;-82
2021/10/06 06:29:36;;;;;;;27.85;4.95;;;18.00;99.90;;;;;;4953955;28;20058;-83
2021/10/06 06:32:02;;;;;;;18.77;4.63;;;18.10;99.90;;;;;;4953600;29;20054;-83
2021/10/06 06:34:28;;;;;;;15.73;3.83;;;18.10;99.90;;;;;;4945857;29;20031;-81
2021/10/06 06:36:54;;;;;;;21.15;4.50;;;18.10;99.90;;;;;;4917388;29;20032;-83
2021/10/06 06:39:19;;;;;;;32.28;4.80;;;18.10;99.90;;;;;;4933382;29;20036;-82
2021/10/06 06:41:45;;;;;;;22.85;4.55;;;18.10;99.90;;;;;;4942612;29;20027;-84
2021/10/06 06:44:11;;;;;;;27.67;4.22;;;18.20;99.90;;;;;;4953850;29;20035;-79
2021/10/06 06:46:37;;;;;;;19.30;4.55;;;18.30;99.90;;;;;;4946945;29;20032;-75
2021/10/06 06:49:04;;;;;;;19.75;4.43;;;18.40;99.90;;;;;;4935716;29;20082;-84
2021/10/06 06:51:30;;;;;;;22.08;4.40;;;18.50;99.90;;;;;;4934441;29;20568;-83
2021/10/06 06:53:55;;;;;;;17.48;3.25;;;18.90;99.90;;;;;;4918234;29;20043;-84
2021/10/06 06:56:22;;;;;;;17.40;3.42;;;19.50;99.90;;;;;;4934282;29;20392;-82
2021/10/06 06:58:49;;;;;;;20.48;3.03;;;19.90;99.90;;;;;;4934650;29;20458;-84
2021/10/06 07:01:18;;;;;;;23.92;3.13;;;20.00;99.90;;;;;;4934758;29;20035;-84
2021/10/06 07:03:44;;;;;;;16.23;2.67;;;20.10;99.90;;;;;;4935562;29;20575;-83
2021/10/06 07:06:10;;;;;;;15.93;2.83;;;20.10;99.90;;;;;;4953679;29;20031;-84
2021/10/06 07:08:36;;;;;;;19.63;3.22;;;20.10;99.90;;;;;;4951451;28;20082;-84
2021/10/06 07:11:01;;;;;;;14.85;3.47;;;20.00;99.90;;;;;;4953510;29;20035;-84
2021/10/06 07:13:28;;;;;;;12.38;2.47;;;19.70;99.90;;;;;;4950581;29;20444;-84
2021/10/06 07:15:53;;;;;;;13.45;2.60;;;19.50;99.90;;;;;;4953767;29;20046;-83
2021/10/06 07:18:19;;;;;;;12.65;2.40;;;19.40;99.90;;;;;;4953104;28;20023;-86
2021/10/06 07:20:45;;;;;;;13.65;3.30;;;19.30;99.90;;;;;;4953143;29;20492;-85
2021/10/06 07:23:10;;;;;;;15.82;2.53;;;19.20;99.90;;;;;;4953605;29;20032;-84
2021/10/06 07:25:37;;;;;;;19.58;2.92;;;19.20;99.90;;;;;;4953540;29;20122;-83
2021/10/06 07:28:03;;;;;;;13.63;2.47;;;19.20;99.90;;;;;;4954078;29;20491;-84
2021/10/06 07:30:29;;;;;;;15.43;2.53;;;19.10;99.90;;;;;;4954052;28;20118;-82
2021/10/06 07:32:55;;;;;;;9.95;2.85;;;19.10;99.90;;;;;;4953134;29;20483;-79
2021/10/06 07:35:21;;;;;;;12.23;2.47;;;19.10;99.90;;;;;;4953439;28;20039;-79
2021/10/06 07:37:47;;;;;;;16.85;2.13;;;19.20;99.90;;;;;;4954295;28;20044;-84
2021/10/06 07:40:13;;;;;;;17.17;3.05;;;19.20;99.90;;;;;;4957516;29;20469;-86
2021/10/06 07:42:39;;;;;;;17.35;2.45;;;19.20;99.90;;;;;;4958176;29;20403;-85
2021/10/06 07:45:05;;;;;;;13.65;3.22;;;19.20;99.90;;;;;;4957568;29;20050;-85
2021/10/06 07:47:31;;;;;;;10.80;2.75;;;19.20;99.90;;;;;;4957694;29;20055;-83
2021/10/06 07:49:57;;;;;;;13.05;2.85;;;19.20;99.90;;;;;;4957101;28;20538;-82
2021/10/06 07:52:23;;;;;;;17.25;2.50;;;19.30;99.90;;;;;;4957506;29;20027;-86
2021/10/06 07:54:49;;;;;;;16.70;2.63;;;19.30;99.90;;;;;;4957434;29;20062;-84
2021/10/06 07:57:15;;;;;;;8.93;2.65;;;19.30;99.90;;;;;;4956736;29;20480;-84
2021/10/06 07:59:40;;;;;;;15.82;3.00;;;19.30;99.90;;;;;;4956593;29;20098;-83
2021/10/06 08:02:06;;;;;;;24.00;3.92;;;19.30;99.90;;;;;;4956596;29;20106;-83
2021/10/06 08:04:32;;;;;;;22.95;2.70;;;19.40;99.90;;;;;;4939194;29;20485;-84
2021/10/06 08:06:57;;;;;;;13.55;2.42;;;19.40;99.90;;;;;;4956862;29;20039;-83
2021/10/06 08:09:23;;;;;;;15.10;2.60;;;19.40;99.90;;;;;;4957322;29;20515;-87
2021/10/06 08:11:49;;;;;;;17.63;3.00;;;19.50;99.90;;;;;;4957784;29;20035;-89
2021/10/06 08:14:15;;;;;;;18.08;2.63;;;19.50;99.90;;;;;;4957108;29;20039;-88
2021/10/06 08:16:40;;;;;;;24.55;2.75;;;19.60;99.90;;;;;;4957394;29;20023;-75
2021/10/06 08:19:06;;;;;;;17.48;3.53;;;19.60;99.90;;;;;;4957401;29;20055;-83
2021/10/06 08:21:32;;;;;;;16.05;3.67;;;19.60;99.90;;;;;;4957263;29;20029;-90
2021/10/06 08:23:58;;;;;;;17.25;3.55;;;19.60;99.90;;;;;;4957334;29;20027;-90
2021/10/06 08:26:23;;;;;;;21.48;3.40;;;19.60;99.90;;;;;;4956499;29;20027;-82
2021/10/06 08:28:49;;;;;;;12.73;2.67;;;19.60;99.90;;;;;;4956418;29;20090;-80
2021/10/06 08:31:15;;;;;;;11.43;2.30;;;19.60;99.90;;;;;;4939188;29;20031;-79
2021/10/06 08:33:41;;;;;;;24.45;3.50;;;19.60;99.90;;;;;;4956323;29;20039;-75
2021/10/06 08:36:06;;;;;;;15.38;2.13;;;19.70;99.90;;;;;;4955154;29;20032;-75
2021/10/06 08:38:34;;;;;;;16.00;1.75;;;19.70;99.90;;;;;;4956767;29;20075;-74
2021/10/06 08:41:00;;;;;;;7.93;2.03;;;19.70;99.90;;;;;;4955614;29;20126;-74
2021/10/06 08:43:26;;;;;;;6.97;2.22;;;19.70;99.90;;;;;;4953752;29;20114;-73
2021/10/06 08:45:52;;;;;;;14.68;2.47;;;19.80;99.90;;;;;;4955694;29;20043;-74
2021/10/06 08:48:17;;;;;;;10.13;2.20;;;19.70;99.90;;;;;;4956600;28;20178;-74
2021/10/06 08:50:43;;;;;;;12.93;2.33;;;19.70;99.90;;;;;;4955107;28;20110;-75
2021/10/06 08:53:09;;;;;;;9.18;2.28;;;19.70;99.90;;;;;;4938892;29;20063;-75
2021/10/06 08:55:35;;;;;;;7.28;2.60;;;19.70;99.90;;;;;;4956517;29;20038;-75
2021/10/06 08:58:06;;;;;;;14.27;2.92;;;19.70;99.90;;;;;;4956643;29;20035;-74
2021/10/06 09:00:50;;;;;;;18.42;2.20;;;19.70;99.90;;;;;;4956432;28;20035;-76
2021/10/06 09:03:27;;;;;;;7.43;1.63;;;19.70;99.90;;;;;;4956401;29;20031;-74
2021/10/06 09:06:08;;;;;;;14.90;2.08;;;19.70;99.90;;;;;;4956394;29;20043;-75
2021/10/06 09:08:43;;;;;;;8.48;1.92;;;19.70;99.90;;;;;;4956392;28;20039;-75
2021/10/06 09:11:08;;;;;;;6.57;2.00;;;19.70;99.90;;;;;;4956139;29;20033;-76
2021/10/06 09:13:37;;;;;;;8.27;1.70;;;19.80;99.90;;;;;;4948205;29;20032;-71
2021/10/06 09:16:03;;;;;;;14.40;2.30;;;19.80;99.90;;;;;;4967377;28;20023;-76
2021/10/06 09:18:30;;;;;;;8.57;1.40;;;19.80;99.90;;;;;;4972917;28;20039;-76
2021/10/06 09:21:01;;;;;;;12.43;2.35;;;19.90;99.90;;;;;;4956220;29;20447;-74
2021/10/06 09:23:29;;;;;;;15.88;2.00;;;19.90;99.90;;;;;;4955976;29;20118;-74
2021/10/06 09:26:03;;;;;;;11.63;2.03;;;20.00;99.90;;;;;;4956060;29;20046;-71
2021/10/06 09:28:46;;;;;;;8.63;2.05;;;20.00;99.90;;;;;;4955754;28;20039;-74
2021/10/06 09:31:19;;;;;;;8.70;2.03;;;20.10;99.90;;;;;;4962074;28;20023;-74
2021/10/06 09:33:48;;;;;;;16.30;2.83;;;20.10;99.90;;;;;;4975049;28;20030;-74
2021/10/06 09:36:28;;;;;;;15.30;2.63;;;20.20;99.90;;;;;;4974942;28;20031;-70
2021/10/06 09:39:08;;;;;;;22.00;2.33;;;20.30;99.90;;;;;;4974745;28;20039;-74
2021/10/06 09:41:37;;;;;;;15.77;2.65;;;20.50;99.90;;;;;;4972246;28;20038;-72
2021/10/06 09:44:10;;;;;;;18.10;2.25;;;20.50;99.90;;;;;;4962086;28;20046;-73
2021/10/06 09:46:52;;;;;;;14.20;2.03;;;20.60;99.90;;;;;;4955777;29;20033;-74
2021/10/06 09:49:19;;;;;;;;;;;20.70;99.90;;;;;;4955782;28;20055;-73
2021/10/06 09:51:45;;;;;;;7.32;1.80;;;20.90;99.90;;;;;;4937712;29;20021;-72
2021/10/06 09:54:11;;;;;;;14.63;2.13;;;21.10;99.90;;;;;;4955363;29;20118;-72
2021/10/06 09:56:43;;;;;;;12.73;2.10;;;21.40;99.90;;;;;;4954369;29;20540;-73
2021/10/06 09:59:15;;;;;;;15.85;2.22;;;21.70;99.90;;;;;;4954569;29;20078;-70
2021/10/06 10:01:43;;;;;;;8.60;2.20;;;22.00;99.90;;;;;;4954763;28;20038;-70
2021/10/06 10:04:11;;;;;;;4.90;1.70;;;22.30;99.90;;;;;;4952629;29;20495;-75
2021/10/06 10:06:38;;;;;;;9.70;1.88;;;22.70;99.90;;;;;;4954226;29;20070;-73
2021/10/06 10:09:07;;;;;;;7.93;1.98;;;23.00;99.90;;;;;;4955232;29;20043;-75
2021/10/06 10:11:38;;;;;;;8.05;1.55;;;23.20;99.90;;;;;;4955367;29;20476;-75
2021/10/06 10:14:07;;;;;;;13.70;1.83;;;23.30;99.90;;;;;;4955264;29;20035;-75
2021/10/06 10:16:33;;;;;;;12.23;2.05;;;23.70;99.90;;;;;;4954955;29;20036;-75
2021/10/06 10:19:08;;;;;;;9.05;1.98;;;24.00;99.90;;;;;;4955135;28;20039;-74
2021/10/06 10:21:36;;;;;;;8.98;1.63;;;24.30;99.90;;;;;;4955061;29;20361;-74
2021/10/06 10:24:10;;;;;;;8.38;1.90;;;24.10;99.90;;;;;;4955242;29;20083;-72
2021/10/06 10:26:35;;;;;;;8.82;1.33;;;23.80;99.90;;;;;;4954958;29;20035;-74
2021/10/06 10:29:01;;;;;;;8.27;1.50;;;23.70;99.90;;;;;;4947283;28;20369;-75
2021/10/06 10:31:28;;;;;;;4.13;1.00;;;23.80;99.90;;;;;;4935471;29;20035;-75
2021/10/06 10:33:55;;;;;;;5.85;1.40;;;23.70;99.90;;;;;;4935726;29;20107;-76
2021/10/06 10:36:32;;;;;;;7.43;1.45;;;23.70;99.90;;;;;;4935593;29;20181;-75
2021/10/06 10:38:58;;;;;;;13.70;1.95;;;23.70;99.90;;;;;;4954866;28;20395;-74
2021/10/06 10:41:48;;;;;;;6.72;1.33;;;23.40;99.90;;;;;;4955000;29;20469;-74
2021/10/06 10:44:30;;;;;;;6.40;1.60;;;22.80;99.90;;;;;;4955092;29;20043;-75
2021/10/06 10:46:57;;;;;;;22.48;1.88;;;22.40;99.90;;;;;;4955026;29;20383;-76
2021/10/06 10:49:23;;;;;;;5.50;1.40;;;22.20;99.90;;;;;;4954757;28;20377;-76
2021/10/06 10:51:59;;;;;;;6.63;1.48;;;22.00;99.90;;;;;;4954912;28;20039;-72
2021/10/06 10:54:27;;;;;;;6.63;1.50;;;21.80;99.90;;;;;;4954277;29;20034;-75
2021/10/06 10:56:53;;;;;;;6.95;1.45;;;21.70;99.90;;;;;;4953282;29;20043;-73
2021/10/06 10:59:24;;;;;;;11.35;1.58;;;21.60;99.90;;;;;;4953393;28;20039;-70
2021/10/06 11:01:53;;;;;;;4.57;1.20;;;21.50;99.90;;;;;;4938735;29;20116;-73
2021/10/06 11:04:25;;;;;;;4.05;1.20;;;21.40;99.90;;;;;;4934575;29;20032;-73
2021/10/06 11:06:54;;;;;;;6.05;1.48;;;21.20;99.90;;;;;;4934409;29;20040;-72
2021/10/06 11:09:32;;;;;;;15.20;2.55;;;21.00;99.90;;;;;;4934019;29;20492;-71
2021/10/06 11:12:07;;;;;;;9.70;1.88;;;20.90;99.90;;;;;;4934452;29;20107;-72
2021/10/06 11:14:38;;;;;;;6.57;1.80;;;20.90;99.90;;;;;;4920689;29;20031;-74
2021/10/06 11:17:11;;;;;;;5.00;1.27;;;20.80;99.90;;;;;;4938406;29;20463;-74
2021/10/06 11:19:50;;;;;;;7.18;1.10;;;20.70;99.90;;;;;;4938582;29;20039;-74
2021/10/06 11:22:21;;;;;;;7.88;1.48;;;20.60;99.90;;;;;;4938636;29;20043;-74
2021/10/06 11:24:51;;;;;;;7.95;1.40;;;20.50;99.90;;;;;;4938170;29;20035;-75
2021/10/06 11:27:18;;;;;;;4.13;1.23;;;20.40;99.90;;;;;;4936879;29;20493;-73
2021/10/06 11:29:46;;;;;;;18.60;1.70;;;20.30;99.90;;;;;;4936836;29;20082;-72
2021/10/06 11:32:13;;;;;;;18.08;1.75;;;20.20;99.90;;;;;;4953772;29;20511;-75
2021/10/06 11:34:49;;;;;;;10.43;1.60;;;20.00;99.90;;;;;;4957250;29;20043;-74
2021/10/06 11:37:17;;;;;;;7.45;1.92;;;19.80;99.90;;;;;;4956824;29;20392;-75
2021/10/06 11:39:43;;;;;;;8.45;1.40;;;19.60;99.90;;;;;;4956461;28;20045;-71
2021/10/06 11:42:10;;;;;;;17.33;2.17;;;19.50;99.90;;;;;;4955939;29;20035;-71
2021/10/06 11:44:36;;;;;;;12.02;2.20;;;19.50;99.90;;;;;;4955562;29;20472;-70
2021/10/06 11:47:05;;;;;;;21.80;2.38;;;19.50;99.90;;;;;;4955487;29;20031;-71
2021/10/06 11:49:33;;;;;;;16.27;2.35;;;19.40;99.90;;;;;;4956056;28;20051;-72
2021/10/06 11:51:59;;;;;;;7.78;1.75;;;19.40;99.90;;;;;;4955454;29;20043;-73
2021/10/06 11:54:26;;;;;;;17.25;2.45;;;19.20;99.90;;;;;;4955984;29;20082;-74
2021/10/06 11:56:54;;;;;;;21.67;3.00;;;19.00;99.90;;;;;;4955859;29;20031;-71
2021/10/06 11:59:22;;;;;;;25.27;4.03;;;19.00;99.90;;;;;;4955497;28;20042;-77
2021/10/06 12:02:02;;;;;;;17.02;3.08;;;18.90;99.90;;;;;;4955616;29;20028;-79
2021/10/06 12:04:39;;;;;;;11.52;2.58;;;18.70;99.90;;;;;;4955951;29;20031;-74
2021/10/06 12:07:10;;;;;;;11.15;2.75;;;18.70;99.90;;;;;;4955883;29;20491;-74
2021/10/06 12:09:47;;;;;;;15.88;3.75;;;18.60;99.90;;;;;;4937935;29;20039;-80
2021/10/06 12:12:23;;;;;;;25.85;5.13;;;18.50;99.90;;;;;;4937613;29;20039;-78
2021/10/06 12:14:52;;;;;;;12.50;3.50;;;18.40;99.90;;;;;;4955294;29;20067;-77
2021/10/06 12:17:23;;;;;;;9.35;2.15;;;18.30;99.90;;;;;;4950179;28;20089;-81
2021/10/06 12:20:11;;;;;;;2.60;1.40;;;18.00;99.90;;;;;;4974223;28;20453;-80
2021/10/06 12:22:46;;;;;;;16.48;1.65;;;17.70;99.90;;;;;;4958947;28;20030;-79
2021/10/06 12:25:23;;;;;;;3.13;1.15;;;17.60;99.90;;;;;;4954959;28;20038;-77
2021/10/06 12:28:14;;;;;;;3.50;1.17;;;17.50;99.90;;;;;;4955204;29;20110;-73
2021/10/06 12:30:41;;;;;;;4.85;1.40;;;17.30;99.90;;;;;;4955458;29;20051;-79
2021/10/06 12:33:10;;;;;;;2.22;1.10;;;17.30;99.90;;;;;;4955307;29;20054;-77
2021/10/06 12:35:41;;;;;;;1.45;0.77;;;17.30;99.90;;;;;;4955118;29;20039;-74
2021/10/06 12:38:07;;;;;;;6.00;1.00;;;17.30;99.90;;;;;;4937699;29;20031;-77
2021/10/06 12:40:48;;;;;;;3.58;1.00;;;17.30;99.90;;;;;;4962767;28;20286;-76
2021/10/06 12:43:15;;;;;;;2.63;0.95;;;17.20;99.90;;;;;;4974439;28;20104;-76
2021/10/06 12:46:06;;;;;;;0.70;0.50;;;17.30;99.90;;;;;;4958396;28;20051;-76